sensor_id;sensor_type;location;lat;lon;timestamp;P1;durP1;ratioP1;P2;durP2;ratioP2
18443;SDS011;9350;53.176;8.194;2023-03-07T00:01:22;37.83;;;18.70;;
18443;SDS011;9350;53.176;8.194;2023-03-07T00:03:50;39.25;;;19.52;;
18443;SDS011;9350;53.176;8.194;2023-03-07T00:06:17;40.00;;;18.55;;
18443;SDS011;9350;53.176;8.194;2023-03-07T00:08:44;37.80;;;18.88;;
18443;SDS011;9350;53.176;8.194;2023-03-07T00:11:13;37.55;;;18.85;;
18443;SDS011;9350;53.176;8.194;2023-03-07T00:13:40;40.58;;;18.40;;
18443;SDS011;9350;53.176;8.194;2023-03-07T00:16:10;36.38;;;17.90;;
18443;SDS011;9350;53.176;8.194;2023-03-07T00:18:38;39.65;;;17.60;;
18443;SDS011;9350;53.176;8.194;2023-03-07T00:21:05;35.33;;;18.17;;
18443;SDS011;9350;53.176;8.194;2023-03-07T00:23:34;31.45;;;15.85;;
18443;SDS011;9350;53.176;8.194;2023-03-07T00:26:02;29.80;;;14.82;;
18443;SDS011;9350;53.176;8.194;2023-03-07T00:28:30;32.22;;;15.45;;
18443;SDS011;9350;53.176;8.194;2023-03-07T00:30:58;27.13;;;14.85;;
18443;SDS011;9350;53.176;8.194;2023-03-07T00:33:27;29.23;;;14.88;;
18443;SDS011;9350;53.176;8.194;2023-03-07T00:35:55;29.13;;;14.80;;
18443;SDS011;9350;53.176;8.194;2023-03-07T00:38:23;28.45;;;14.65;;
18443;SDS011;9350;53.176;8.194;2023-03-07T00:40:56;32.13;;;16.40;;
18443;SDS011;9350;53.176;8.194;2023-03-07T00:43:24;28.83;;;14.10;;
18443;SDS011;9350;53.176;8.194;2023-03-07T00:45:51;25.45;;;12.75;;
18443;SDS011;9350;53.176;8.194;2023-03-07T00:48:19;22.98;;;12.80;;
18443;SDS011;9350;53.176;8.194;2023-03-07T00:50:47;23.17;;;12.93;;
18443;SDS011;9350;53.176;8.194;2023-03-07T00:53:14;23.65;;;13.15;;
18443;SDS011;9350;53.176;8.194;2023-03-07T00:55:42;22.42;;;12.73;;
18443;SDS011;9350;53.176;8.194;2023-03-07T00:58:19;19.92;;;12.15;;
18443;SDS011;9350;53.176;8.194;2023-03-07T01:00:45;23.70;;;11.73;;
18443;SDS011;9350;53.176;8.194;2023-03-07T01:03:12;24.58;;;12.95;;
18443;SDS011;9350;53.176;8.194;2023-03-07T01:05:39;27.52;;;13.23;;
18443;SDS011;9350;53.176;8.194;2023-03-07T01:08:07;28.40;;;12.90;;
18443;SDS011;9350;53.176;8.194;2023-03-07T01:10:34;26.70;;;12.80;;
18443;SDS011;9350;53.176;8.194;2023-03-07T01:13:01;21.40;;;11.50;;
18443;SDS011;9350;53.176;8.194;2023-03-07T01:15:28;22.65;;;11.98;;
18443;SDS011;9350;53.176;8.194;2023-03-07T01:17:55;22.42;;;12.35;;
18443;SDS011;9350;53.176;8.194;2023-03-07T01:20:21;18.80;;;11.07;;
18443;SDS011;9350;53.176;8.194;2023-03-07T01:22:48;23.77;;;11.88;;
18443;SDS011;9350;53.176;8.194;2023-03-07T01:25:16;20.02;;;11.45;;
18443;SDS011;9350;53.176;8.194;2023-03-07T01:27:43;22.25;;;11.32;;
18443;SDS011;9350;53.176;8.194;2023-03-07T01:30:10;17.67;;;9.52;;
18443;SDS011;9350;53.176;8.194;2023-03-07T01:32:37;17.63;;;10.05;;
18443;SDS011;9350;53.176;8.194;2023-03-07T01:35:04;20.15;;;11.25;;
18443;SDS011;9350;53.176;8.194;2023-03-07T01:37:31;17.80;;;10.18;;
18443;SDS011;9350;53.176;8.194;2023-03-07T01:39:58;20.83;;;10.20;;
18443;SDS011;9350;53.176;8.194;2023-03-07T01:42:28;18.38;;;9.88;;
18443;SDS011;9350;53.176;8.194;2023-03-07T01:44:59;22.08;;;9.48;;
18443;SDS011;9350;53.176;8.194;2023-03-07T01:47:27;18.77;;;9.95;;
18443;SDS011;9350;53.176;8.194;2023-03-07T01:49:54;16.38;;;9.45;;
18443;SDS011;9350;53.176;8.194;2023-03-07T01:52:23;17.35;;;9.18;;
18443;SDS011;9350;53.176;8.194;2023-03-07T01:54:53;16.98;;;8.70;;
18443;SDS011;9350;53.176;8.194;2023-03-07T01:57:23;15.23;;;8.55;;
18443;SDS011;9350;53.176;8.194;2023-03-07T01:59:55;15.15;;;8.70;;
18443;SDS011;9350;53.176;8.194;2023-03-07T02:02:23;16.33;;;8.43;;
18443;SDS011;9350;53.176;8.194;2023-03-07T02:04:52;13.32;;;7.82;;
18443;SDS011;9350;53.176;8.194;2023-03-07T02:07:24;13.77;;;7.45;;
18443;SDS011;9350;53.176;8.194;2023-03-07T02:09:54;14.38;;;7.57;;
18443;SDS011;9350;53.176;8.194;2023-03-07T02:12:22;15.85;;;6.95;;
18443;SDS011;9350;53.176;8.194;2023-03-07T02:14:50;13.05;;;7.00;;
18443;SDS011;9350;53.176;8.194;2023-03-07T02:17:17;13.32;;;7.03;;
18443;SDS011;9350;53.176;8.194;2023-03-07T02:19:51;12.90;;;6.90;;
18443;SDS011;9350;53.176;8.194;2023-03-07T02:22:26;9.15;;;5.97;;
18443;SDS011;9350;53.176;8.194;2023-03-07T02:24:54;10.15;;;6.32;;
18443;SDS011;9350;53.176;8.194;2023-03-07T02:27:25;10.52;;;5.68;;
18443;SDS011;9350;53.176;8.194;2023-03-07T02:29:54;10.27;;;5.10;;
18443;SDS011;9350;53.176;8.194;2023-03-07T02:32:21;10.13;;;5.15;;
18443;SDS011;9350;53.176;8.194;2023-03-07T02:34:48;10.38;;;5.20;;
18443;SDS011;9350;53.176;8.194;2023-03-07T02:37:15;10.25;;;5.28;;
18443;SDS011;9350;53.176;8.194;2023-03-07T02:39:47;7.30;;;4.35;;
18443;SDS011;9350;53.176;8.194;2023-03-07T02:42:14;6.93;;;4.43;;
18443;SDS011;9350;53.176;8.194;2023-03-07T02:44:45;7.25;;;4.05;;
18443;SDS011;9350;53.176;8.194;2023-03-07T02:47:12;5.90;;;3.75;;
18443;SDS011;9350;53.176;8.194;2023-03-07T02:49:39;7.53;;;3.90;;
18443;SDS011;9350;53.176;8.194;2023-03-07T02:52:05;5.90;;;3.00;;
18443;SDS011;9350;53.176;8.194;2023-03-07T02:54:32;5.03;;;3.25;;
18443;SDS011;9350;53.176;8.194;2023-03-07T02:56:59;6.85;;;3.25;;
18443;SDS011;9350;53.176;8.194;2023-03-07T02:59:25;6.85;;;3.33;;
18443;SDS011;9350;53.176;8.194;2023-03-07T03:01:53;6.45;;;2.85;;
18443;SDS011;9350;53.176;8.194;2023-03-07T03:04:21;5.50;;;3.10;;
18443;SDS011;9350;53.176;8.194;2023-03-07T03:06:48;4.40;;;2.65;;
18443;SDS011;9350;53.176;8.194;2023-03-07T03:09:14;5.95;;;2.55;;
18443;SDS011;9350;53.176;8.194;2023-03-07T03:11:41;5.55;;;2.22;;
18443;SDS011;9350;53.176;8.194;2023-03-07T03:14:08;6.75;;;2.40;;
18443;SDS011;9350;53.176;8.194;2023-03-07T03:16:35;4.00;;;2.30;;
18443;SDS011;9350;53.176;8.194;2023-03-07T03:19:03;6.50;;;2.22;;
18443;SDS011;9350;53.176;8.194;2023-03-07T03:21:30;3.60;;;2.20;;
18443;SDS011;9350;53.176;8.194;2023-03-07T03:23:57;4.57;;;2.08;;
18443;SDS011;9350;53.176;8.194;2023-03-07T03:26:24;3.13;;;1.77;;
18443;SDS011;9350;53.176;8.194;2023-03-07T03:28:52;8.40;;;1.92;;
18443;SDS011;9350;53.176;8.194;2023-03-07T03:31:19;3.88;;;1.63;;
18443;SDS011;9350;53.176;8.194;2023-03-07T03:33:46;8.15;;;1.95;;
18443;SDS011;9350;53.176;8.194;2023-03-07T03:36:15;6.05;;;1.83;;
18443;SDS011;9350;53.176;8.194;2023-03-07T03:38:42;7.50;;;1.80;;
18443;SDS011;9350;53.176;8.194;2023-03-07T03:41:10;4.55;;;1.58;;
18443;SDS011;9350;53.176;8.194;2023-03-07T03:43:39;2.00;;;1.42;;
18443;SDS011;9350;53.176;8.194;2023-03-07T03:46:06;8.63;;;1.70;;
18443;SDS011;9350;53.176;8.194;2023-03-07T03:48:33;1.75;;;1.23;;
18443;SDS011;9350;53.176;8.194;2023-03-07T03:51:00;3.20;;;1.25;;
18443;SDS011;9350;53.176;8.194;2023-03-07T03:53:30;3.38;;;1.65;;
18443;SDS011;9350;53.176;8.194;2023-03-07T03:56:01;2.67;;;1.15;;
18443;SDS011;9350;53.176;8.194;2023-03-07T03:58:30;3.53;;;1.45;;
18443;SDS011;9350;53.176;8.194;2023-03-07T04:00:57;5.88;;;1.33;;
18443;SDS011;9350;53.176;8.194;2023-03-07T04:03:25;6.07;;;1.48;;
18443;SDS011;9350;53.176;8.194;2023-03-07T04:05:52;2.65;;;1.50;;
18443;SDS011;9350;53.176;8.194;2023-03-07T04:08:18;6.30;;;1.67;;
18443;SDS011;9350;53.176;8.194;2023-03-07T04:10:47;5.07;;;1.17;;
18443;SDS011;9350;53.176;8.194;2023-03-07T04:13:14;6.63;;;1.33;;
18443;SDS011;9350;53.176;8.194;2023-03-07T04:15:41;3.70;;;1.83;;
18443;SDS011;9350;53.176;8.194;2023-03-07T04:18:07;5.72;;;1.40;;
18443;SDS011;9350;53.176;8.194;2023-03-07T04:20:34;5.75;;;1.13;;
18443;SDS011;9350;53.176;8.194;2023-03-07T04:23:01;7.47;;;1.60;;
18443;SDS011;9350;53.176;8.194;2023-03-07T04:25:28;6.03;;;1.85;;
18443;SDS011;9350;53.176;8.194;2023-03-07T04:27:56;7.50;;;1.60;;
18443;SDS011;9350;53.176;8.194;2023-03-07T04:30:22;2.97;;;1.30;;
18443;SDS011;9350;53.176;8.194;2023-03-07T04:32:50;5.55;;;1.48;;
18443;SDS011;9350;53.176;8.194;2023-03-07T04:35:17;5.82;;;1.77;;
18443;SDS011;9350;53.176;8.194;2023-03-07T04:37:43;9.10;;;1.40;;
18443;SDS011;9350;53.176;8.194;2023-03-07T04:40:10;4.40;;;1.50;;
18443;SDS011;9350;53.176;8.194;2023-03-07T04:42:37;6.88;;;1.40;;
18443;SDS011;9350;53.176;8.194;2023-03-07T04:45:06;7.72;;;1.98;;
18443;SDS011;9350;53.176;8.194;2023-03-07T04:47:34;6.60;;;1.38;;
18443;SDS011;9350;53.176;8.194;2023-03-07T04:50:01;7.57;;;1.45;;
18443;SDS011;9350;53.176;8.194;2023-03-07T04:52:28;7.40;;;1.10;;
18443;SDS011;9350;53.176;8.194;2023-03-07T04:54:54;6.40;;;1.30;;
18443;SDS011;9350;53.176;8.194;2023-03-07T04:57:21;3.60;;;1.17;;
18443;SDS011;9350;53.176;8.194;2023-03-07T04:59:48;5.05;;;1.20;;
18443;SDS011;9350;53.176;8.194;2023-03-07T05:02:16;7.75;;;1.50;;
18443;SDS011;9350;53.176;8.194;2023-03-07T05:04:43;8.60;;;2.08;;
18443;SDS011;9350;53.176;8.194;2023-03-07T05:07:09;12.85;;;1.83;;
18443;SDS011;9350;53.176;8.194;2023-03-07T05:09:36;7.72;;;1.40;;
18443;SDS011;9350;53.176;8.194;2023-03-07T05:12:03;9.15;;;1.30;;
18443;SDS011;9350;53.176;8.194;2023-03-07T05:14:30;8.07;;;1.38;;
18443;SDS011;9350;53.176;8.194;2023-03-07T05:16:57;6.63;;;1.67;;
18443;SDS011;9350;53.176;8.194;2023-03-07T05:19:25;4.28;;;1.30;;
18443;SDS011;9350;53.176;8.194;2023-03-07T05:21:52;6.07;;;1.55;;
18443;SDS011;9350;53.176;8.194;2023-03-07T05:24:18;6.18;;;1.00;;
18443;SDS011;9350;53.176;8.194;2023-03-07T05:26:45;6.80;;;1.25;;
18443;SDS011;9350;53.176;8.194;2023-03-07T05:29:12;7.40;;;1.38;;
18443;SDS011;9350;53.176;8.194;2023-03-07T05:31:38;9.30;;;1.30;;
18443;SDS011;9350;53.176;8.194;2023-03-07T05:34:05;4.07;;;1.10;;
18443;SDS011;9350;53.176;8.194;2023-03-07T05:36:34;7.68;;;1.60;;
18443;SDS011;9350;53.176;8.194;2023-03-07T05:39:01;6.25;;;1.35;;
18443;SDS011;9350;53.176;8.194;2023-03-07T05:41:29;5.93;;;1.90;;
18443;SDS011;9350;53.176;8.194;2023-03-07T05:43:55;7.63;;;1.23;;
18443;SDS011;9350;53.176;8.194;2023-03-07T05:46:22;6.85;;;2.33;;
18443;SDS011;9350;53.176;8.194;2023-03-07T05:48:49;7.72;;;1.17;;
18443;SDS011;9350;53.176;8.194;2023-03-07T05:51:16;6.32;;;1.10;;
18443;SDS011;9350;53.176;8.194;2023-03-07T05:53:44;4.40;;;1.50;;
18443;SDS011;9350;53.176;8.194;2023-03-07T05:56:11;4.72;;;1.00;;
18443;SDS011;9350;53.176;8.194;2023-03-07T05:58:38;4.60;;;1.10;;
18443;SDS011;9350;53.176;8.194;2023-03-07T06:01:05;5.78;;;1.42;;
18443;SDS011;9350;53.176;8.194;2023-03-07T06:03:32;7.35;;;1.27;;
18443;SDS011;9350;53.176;8.194;2023-03-07T06:05:58;9.82;;;1.35;;
18443;SDS011;9350;53.176;8.194;2023-03-07T06:08:25;7.78;;;1.23;;
18443;SDS011;9350;53.176;8.194;2023-03-07T06:10:53;7.80;;;1.15;;
18443;SDS011;9350;53.176;8.194;2023-03-07T06:13:21;7.85;;;1.30;;
18443;SDS011;9350;53.176;8.194;2023-03-07T06:15:49;8.90;;;1.40;;
18443;SDS011;9350;53.176;8.194;2023-03-07T06:18:16;9.48;;;1.67;;
18443;SDS011;9350;53.176;8.194;2023-03-07T06:20:44;9.52;;;1.33;;
18443;SDS011;9350;53.176;8.194;2023-03-07T06:23:18;5.22;;;1.40;;
18443;SDS011;9350;53.176;8.194;2023-03-07T06:25:45;11.77;;;1.52;;
18443;SDS011;9350;53.176;8.194;2023-03-07T06:28:13;4.68;;;1.25;;
18443;SDS011;9350;53.176;8.194;2023-03-07T06:30:40;15.00;;;1.20;;
18443;SDS011;9350;53.176;8.194;2023-03-07T06:33:06;4.05;;;1.33;;
18443;SDS011;9350;53.176;8.194;2023-03-07T06:35:33;7.38;;;1.60;;
18443;SDS011;9350;53.176;8.194;2023-03-07T06:38:03;13.25;;;1.50;;
18443;SDS011;9350;53.176;8.194;2023-03-07T06:40:29;6.20;;;1.45;;
18443;SDS011;9350;53.176;8.194;2023-03-07T06:42:56;8.43;;;1.33;;
18443;SDS011;9350;53.176;8.194;2023-03-07T06:45:25;10.45;;;1.50;;
18443;SDS011;9350;53.176;8.194;2023-03-07T06:47:51;6.65;;;1.27;;
18443;SDS011;9350;53.176;8.194;2023-03-07T06:50:18;5.88;;;1.35;;
18443;SDS011;9350;53.176;8.194;2023-03-07T06:52:45;6.40;;;1.48;;
18443;SDS011;9350;53.176;8.194;2023-03-07T06:55:13;6.68;;;1.60;;
18443;SDS011;9350;53.176;8.194;2023-03-07T06:57:41;8.50;;;1.73;;
18443;SDS011;9350;53.176;8.194;2023-03-07T07:00:08;7.68;;;1.55;;
18443;SDS011;9350;53.176;8.194;2023-03-07T07:02:37;4.40;;;1.02;;
18443;SDS011;9350;53.176;8.194;2023-03-07T07:05:04;5.60;;;1.42;;
18443;SDS011;9350;53.176;8.194;2023-03-07T07:07:31;6.35;;;1.40;;
18443;SDS011;9350;53.176;8.194;2023-03-07T07:09:58;8.43;;;1.30;;
18443;SDS011;9350;53.176;8.194;2023-03-07T07:12:25;6.13;;;1.27;;
18443;SDS011;9350;53.176;8.194;2023-03-07T07:14:52;7.63;;;1.30;;
18443;SDS011;9350;53.176;8.194;2023-03-07T07:17:19;6.60;;;1.30;;
18443;SDS011;9350;53.176;8.194;2023-03-07T07:19:47;6.88;;;1.27;;
18443;SDS011;9350;53.176;8.194;2023-03-07T07:22:14;5.38;;;1.30;;
18443;SDS011;9350;53.176;8.194;2023-03-07T07:24:42;5.55;;;1.20;;
18443;SDS011;9350;53.176;8.194;2023-03-07T07:27:08;6.82;;;1.40;;
18443;SDS011;9350;53.176;8.194;2023-03-07T07:29:35;10.73;;;1.30;;
18443;SDS011;9350;53.176;8.194;2023-03-07T07:32:02;9.57;;;1.25;;
18443;SDS011;9350;53.176;8.194;2023-03-07T07:34:29;11.18;;;1.40;;
18443;SDS011;9350;53.176;8.194;2023-03-07T07:36:57;5.25;;;1.48;;
18443;SDS011;9350;53.176;8.194;2023-03-07T07:39:24;8.02;;;1.45;;
18443;SDS011;9350;53.176;8.194;2023-03-07T07:41:51;12.95;;;1.45;;
18443;SDS011;9350;53.176;8.194;2023-03-07T07:44:17;4.32;;;1.20;;
18443;SDS011;9350;53.176;8.194;2023-03-07T07:46:44;7.13;;;1.50;;
18443;SDS011;9350;53.176;8.194;2023-03-07T07:49:11;10.02;;;2.00;;
18443;SDS011;9350;53.176;8.194;2023-03-07T07:51:38;8.48;;;1.30;;
18443;SDS011;9350;53.176;8.194;2023-03-07T07:54:06;6.60;;;1.30;;
18443;SDS011;9350;53.176;8.194;2023-03-07T07:56:33;6.90;;;1.45;;
18443;SDS011;9350;53.176;8.194;2023-03-07T07:59:00;5.65;;;1.10;;
18443;SDS011;9350;53.176;8.194;2023-03-07T08:01:27;7.78;;;1.30;;
18443;SDS011;9350;53.176;8.194;2023-03-07T08:03:53;5.78;;;1.45;;
18443;SDS011;9350;53.176;8.194;2023-03-07T08:06:21;3.78;;;1.40;;
18443;SDS011;9350;53.176;8.194;2023-03-07T08:08:49;6.45;;;1.15;;
18443;SDS011;9350;53.176;8.194;2023-03-07T08:11:18;8.05;;;1.50;;
18443;SDS011;9350;53.176;8.194;2023-03-07T08:13:45;5.32;;;1.30;;
18443;SDS011;9350;53.176;8.194;2023-03-07T08:16:13;7.93;;;1.60;;
18443;SDS011;9350;53.176;8.194;2023-03-07T08:18:41;8.85;;;1.33;;
18443;SDS011;9350;53.176;8.194;2023-03-07T08:21:12;8.75;;;1.52;;
18443;SDS011;9350;53.176;8.194;2023-03-07T08:23:39;5.30;;;1.40;;
18443;SDS011;9350;53.176;8.194;2023-03-07T08:26:06;3.10;;;1.10;;
18443;SDS011;9350;53.176;8.194;2023-03-07T08:28:36;4.93;;;1.00;;
18443;SDS011;9350;53.176;8.194;2023-03-07T08:31:06;9.07;;;1.35;;
18443;SDS011;9350;53.176;8.194;2023-03-07T08:33:33;6.75;;;1.20;;
18443;SDS011;9350;53.176;8.194;2023-03-07T08:36:00;5.88;;;1.30;;
18443;SDS011;9350;53.176;8.194;2023-03-07T08:38:27;5.97;;;1.20;;
18443;SDS011;9350;53.176;8.194;2023-03-07T08:40:57;9.98;;;1.23;;
18443;SDS011;9350;53.176;8.194;2023-03-07T08:43:25;4.53;;;1.25;;
18443;SDS011;9350;53.176;8.194;2023-03-07T08:45:54;2.70;;;1.20;;
18443;SDS011;9350;53.176;8.194;2023-03-07T08:48:20;6.63;;;1.80;;
18443;SDS011;9350;53.176;8.194;2023-03-07T08:50:47;5.25;;;1.20;;
18443;SDS011;9350;53.176;8.194;2023-03-07T08:53:14;4.70;;;1.13;;
18443;SDS011;9350;53.176;8.194;2023-03-07T08:55:41;7.60;;;1.05;;
18443;SDS011;9350;53.176;8.194;2023-03-07T08:58:09;6.82;;;1.25;;
18443;SDS011;9350;53.176;8.194;2023-03-07T09:00:36;2.85;;;1.00;;
18443;SDS011;9350;53.176;8.194;2023-03-07T09:03:04;10.57;;;1.20;;
18443;SDS011;9350;53.176;8.194;2023-03-07T09:05:32;5.35;;;1.20;;
18443;SDS011;9350;53.176;8.194;2023-03-07T09:08:01;1.30;;;0.88;;
18443;SDS011;9350;53.176;8.194;2023-03-07T09:10:29;5.22;;;1.08;;
18443;SDS011;9350;53.176;8.194;2023-03-07T09:12:56;6.47;;;1.17;;
18443;SDS011;9350;53.176;8.194;2023-03-07T09:15:22;6.25;;;1.40;;
18443;SDS011;9350;53.176;8.194;2023-03-07T09:17:49;8.35;;;1.42;;
18443;SDS011;9350;53.176;8.194;2023-03-07T09:20:17;5.45;;;1.30;;
18443;SDS011;9350;53.176;8.194;2023-03-07T09:22:45;4.70;;;1.40;;
18443;SDS011;9350;53.176;8.194;2023-03-07T09:25:11;8.07;;;1.73;;
18443;SDS011;9350;53.176;8.194;2023-03-07T09:27:39;5.80;;;1.17;;
18443;SDS011;9350;53.176;8.194;2023-03-07T09:30:06;8.10;;;1.20;;
18443;SDS011;9350;53.176;8.194;2023-03-07T09:32:34;12.50;;;1.35;;
18443;SDS011;9350;53.176;8.194;2023-03-07T09:35:01;5.85;;;1.23;;
18443;SDS011;9350;53.176;8.194;2023-03-07T09:37:29;5.97;;;1.13;;
18443;SDS011;9350;53.176;8.194;2023-03-07T09:39:56;8.15;;;1.35;;
18443;SDS011;9350;53.176;8.194;2023-03-07T09:42:23;4.97;;;1.20;;
18443;SDS011;9350;53.176;8.194;2023-03-07T09:44:59;3.15;;;1.30;;
18443;SDS011;9350;53.176;8.194;2023-03-07T09:47:54;10.20;;;1.20;;
18443;SDS011;9350;53.176;8.194;2023-03-07T09:50:38;6.43;;;1.88;;
18443;SDS011;9350;53.176;8.194;2023-03-07T09:53:14;8.85;;;1.38;;
18443;SDS011;9350;53.176;8.194;2023-03-07T09:55:45;6.68;;;1.17;;
18443;SDS011;9350;53.176;8.194;2023-03-07T09:58:16;6.90;;;1.63;;
18443;SDS011;9350;53.176;8.194;2023-03-07T10:00:47;3.95;;;1.20;;
18443;SDS011;9350;53.176;8.194;2023-03-07T10:03:21;5.53;;;1.60;;
18443;SDS011;9350;53.176;8.194;2023-03-07T10:05:54;6.88;;;1.00;;
18443;SDS011;9350;53.176;8.194;2023-03-07T10:08:27;7.22;;;1.38;;
18443;SDS011;9350;53.176;8.194;2023-03-07T10:10:57;5.65;;;1.17;;
18443;SDS011;9350;53.176;8.194;2023-03-07T10:13:36;5.50;;;1.10;;
18443;SDS011;9350;53.176;8.194;2023-03-07T10:16:13;4.10;;;1.10;;
18443;SDS011;9350;53.176;8.194;2023-03-07T10:18:47;9.85;;;1.50;;
18443;SDS011;9350;53.176;8.194;2023-03-07T10:21:24;9.35;;;1.30;;
18443;SDS011;9350;53.176;8.194;2023-03-07T10:24:09;8.18;;;1.50;;
18443;SDS011;9350;53.176;8.194;2023-03-07T10:26:56;7.38;;;1.60;;
18443;SDS011;9350;53.176;8.194;2023-03-07T10:29:29;7.07;;;1.38;;
18443;SDS011;9350;53.176;8.194;2023-03-07T10:32:03;4.20;;;1.48;;
18443;SDS011;9350;53.176;8.194;2023-03-07T10:34:50;11.63;;;1.60;;
18443;SDS011;9350;53.176;8.194;2023-03-07T10:37:24;8.00;;;1.50;;
18443;SDS011;9350;53.176;8.194;2023-03-07T10:40:00;7.10;;;1.52;;
18443;SDS011;9350;53.176;8.194;2023-03-07T10:42:29;6.82;;;1.52;;
18443;SDS011;9350;53.176;8.194;2023-03-07T10:45:00;8.05;;;1.48;;
18443;SDS011;9350;53.176;8.194;2023-03-07T10:47:28;3.13;;;1.20;;
18443;SDS011;9350;53.176;8.194;2023-03-07T10:49:55;5.72;;;1.45;;
18443;SDS011;9350;53.176;8.194;2023-03-07T10:52:31;11.23;;;1.40;;
18443;SDS011;9350;53.176;8.194;2023-03-07T11:00:58;5.80;;;1.20;;
18443;SDS011;9350;53.176;8.194;2023-03-07T11:03:28;10.90;;;1.63;;
18443;SDS011;9350;53.176;8.194;2023-03-07T11:05:57;7.20;;;1.42;;
18443;SDS011;9350;53.176;8.194;2023-03-07T11:08:29;9.27;;;1.33;;
18443;SDS011;9350;53.176;8.194;2023-03-07T11:10:58;7.50;;;1.33;;
18443;SDS011;9350;53.176;8.194;2023-03-07T11:13:27;6.20;;;1.30;;
18443;SDS011;9350;53.176;8.194;2023-03-07T11:16:07;8.05;;;1.45;;
18443;SDS011;9350;53.176;8.194;2023-03-07T11:18:40;3.30;;;1.52;;
18443;SDS011;9350;53.176;8.194;2023-03-07T11:21:23;8.15;;;1.48;;
18443;SDS011;9350;53.176;8.194;2023-03-07T11:23:59;7.47;;;1.60;;
18443;SDS011;9350;53.176;8.194;2023-03-07T11:26:31;5.05;;;1.30;;
18443;SDS011;9350;53.176;8.194;2023-03-07T11:29:08;7.97;;;1.98;;
18443;SDS011;9350;53.176;8.194;2023-03-07T11:31:38;7.25;;;2.05;;
18443;SDS011;9350;53.176;8.194;2023-03-07T11:34:21;8.23;;;1.92;;
18443;SDS011;9350;53.176;8.194;2023-03-07T11:36:53;8.15;;;1.52;;
18443;SDS011;9350;53.176;8.194;2023-03-07T11:39:24;7.55;;;1.90;;
18443;SDS011;9350;53.176;8.194;2023-03-07T11:41:59;4.85;;;1.40;;
18443;SDS011;9350;53.176;8.194;2023-03-07T11:44:32;8.18;;;1.55;;
18443;SDS011;9350;53.176;8.194;2023-03-07T11:47:09;6.18;;;1.30;;
18443;SDS011;9350;53.176;8.194;2023-03-07T11:49:53;5.05;;;1.30;;
18443;SDS011;9350;53.176;8.194;2023-03-07T11:52:42;8.18;;;1.38;;
18443;SDS011;9350;53.176;8.194;2023-03-07T11:55:32;4.60;;;1.60;;
18443;SDS011;9350;53.176;8.194;2023-03-07T11:58:12;6.80;;;1.75;;
18443;SDS011;9350;53.176;8.194;2023-03-07T12:00:56;5.28;;;1.35;;
18443;SDS011;9350;53.176;8.194;2023-03-07T12:03:36;11.43;;;1.40;;
18443;SDS011;9350;53.176;8.194;2023-03-07T12:06:23;4.97;;;1.00;;
18443;SDS011;9350;53.176;8.194;2023-03-07T12:08:57;6.05;;;1.27;;
18443;SDS011;9350;53.176;8.194;2023-03-07T12:11:48;18.27;;;1.40;;
18443;SDS011;9350;53.176;8.194;2023-03-07T12:14:30;8.00;;;1.50;;
18443;SDS011;9350;53.176;8.194;2023-03-07T12:17:04;4.47;;;1.23;;
18443;SDS011;9350;53.176;8.194;2023-03-07T12:19:44;6.78;;;1.23;;
18443;SDS011;9350;53.176;8.194;2023-03-07T12:22:32;8.32;;;1.50;;
18443;SDS011;9350;53.176;8.194;2023-03-07T12:25:17;8.65;;;1.40;;
18443;SDS011;9350;53.176;8.194;2023-03-07T12:27:49;3.67;;;1.38;;
18443;SDS011;9350;53.176;8.194;2023-03-07T12:30:25;6.03;;;1.40;;
18443;SDS011;9350;53.176;8.194;2023-03-07T12:32:58;4.03;;;1.17;;
18443;SDS011;9350;53.176;8.194;2023-03-07T12:35:25;6.93;;;1.50;;
18443;SDS011;9350;53.176;8.194;2023-03-07T12:37:57;2.25;;;1.20;;
18443;SDS011;9350;53.176;8.194;2023-03-07T12:40:31;7.95;;;1.40;;
18443;SDS011;9350;53.176;8.194;2023-03-07T12:43:06;10.15;;;1.30;;
18443;SDS011;9350;53.176;8.194;2023-03-07T12:45:42;3.85;;;1.25;;
18443;SDS011;9350;53.176;8.194;2023-03-07T12:48:15;7.50;;;1.20;;
18443;SDS011;9350;53.176;8.194;2023-03-07T12:50:49;6.65;;;1.13;;
18443;SDS011;9350;53.176;8.194;2023-03-07T12:53:23;4.82;;;1.50;;
18443;SDS011;9350;53.176;8.194;2023-03-07T12:55:59;6.63;;;1.10;;
18443;SDS011;9350;53.176;8.194;2023-03-07T12:58:33;4.93;;;1.10;;
18443;SDS011;9350;53.176;8.194;2023-03-07T13:01:05;5.78;;;1.33;;
18443;SDS011;9350;53.176;8.194;2023-03-07T13:03:39;3.50;;;1.30;;
18443;SDS011;9350;53.176;8.194;2023-03-07T13:06:12;7.22;;;1.42;;
18443;SDS011;9350;53.176;8.194;2023-03-07T13:08:43;4.72;;;1.23;;
18443;SDS011;9350;53.176;8.194;2023-03-07T13:11:16;7.28;;;2.05;;
18443;SDS011;9350;53.176;8.194;2023-03-07T13:16:41;9.65;;;0.98;;
18443;SDS011;9350;53.176;8.194;2023-03-07T13:40:24;6.00;;;1.02;;
18443;SDS011;9350;53.176;8.194;2023-03-07T13:43:32;3.03;;;1.00;;
18443;SDS011;9350;53.176;8.194;2023-03-07T13:54:58;3.63;;;0.98;;
18443;SDS011;9350;53.176;8.194;2023-03-07T13:57:28;5.13;;;1.33;;
18443;SDS011;9350;53.176;8.194;2023-03-07T14:00:00;6.68;;;0.85;;
18443;SDS011;9350;53.176;8.194;2023-03-07T14:02:28;4.07;;;1.00;;
18443;SDS011;9350;53.176;8.194;2023-03-07T14:04:55;4.18;;;0.80;;
18443;SDS011;9350;53.176;8.194;2023-03-07T14:07:28;3.90;;;0.93;;
18443;SDS011;9350;53.176;8.194;2023-03-07T14:10:00;3.67;;;1.00;;
18443;SDS011;9350;53.176;8.194;2023-03-07T14:12:32;4.75;;;1.30;;
18443;SDS011;9350;53.176;8.194;2023-03-07T14:15:15;5.35;;;1.00;;
18443;SDS011;9350;53.176;8.194;2023-03-07T14:17:54;4.47;;;1.48;;
18443;SDS011;9350;53.176;8.194;2023-03-07T14:20:40;3.95;;;0.80;;
18443;SDS011;9350;53.176;8.194;2023-03-07T14:23:19;5.13;;;0.90;;
18443;SDS011;9350;53.176;8.194;2023-03-07T14:26:00;6.07;;;1.10;;
18443;SDS011;9350;53.176;8.194;2023-03-07T14:28:39;2.22;;;1.35;;
18443;SDS011;9350;53.176;8.194;2023-03-07T14:31:17;2.00;;;1.00;;
18443;SDS011;9350;53.176;8.194;2023-03-07T14:33:51;7.57;;;1.70;;
18443;SDS011;9350;53.176;8.194;2023-03-07T14:36:19;5.00;;;1.45;;
18443;SDS011;9350;53.176;8.194;2023-03-07T14:38:47;4.90;;;1.33;;
18443;SDS011;9350;53.176;8.194;2023-03-07T14:41:18;6.65;;;1.20;;
18443;SDS011;9350;53.176;8.194;2023-03-07T14:43:59;5.65;;;1.20;;
18443;SDS011;9350;53.176;8.194;2023-03-07T14:46:35;8.95;;;1.08;;
18443;SDS011;9350;53.176;8.194;2023-03-07T14:49:11;5.50;;;1.23;;
18443;SDS011;9350;53.176;8.194;2023-03-07T14:51:46;3.13;;;1.10;;
18443;SDS011;9350;53.176;8.194;2023-03-07T14:54:14;7.72;;;1.00;;
18443;SDS011;9350;53.176;8.194;2023-03-07T14:56:43;4.28;;;1.00;;
18443;SDS011;9350;53.176;8.194;2023-03-07T14:59:11;8.23;;;1.00;;
18443;SDS011;9350;53.176;8.194;2023-03-07T15:01:39;4.22;;;1.13;;
18443;SDS011;9350;53.176;8.194;2023-03-07T15:04:07;2.72;;;0.88;;
18443;SDS011;9350;53.176;8.194;2023-03-07T15:06:51;2.63;;;1.00;;
18443;SDS011;9350;53.176;8.194;2023-03-07T15:09:20;3.35;;;0.90;;
18443;SDS011;9350;53.176;8.194;2023-03-07T15:11:48;4.65;;;1.05;;
18443;SDS011;9350;53.176;8.194;2023-03-07T15:14:20;4.25;;;0.90;;
18443;SDS011;9350;53.176;8.194;2023-03-07T15:16:51;7.72;;;1.15;;
18443;SDS011;9350;53.176;8.194;2023-03-07T15:19:26;1.95;;;0.90;;
18443;SDS011;9350;53.176;8.194;2023-03-07T15:22:00;5.63;;;1.20;;
18443;SDS011;9350;53.176;8.194;2023-03-07T15:24:29;4.72;;;1.10;;
18443;SDS011;9350;53.176;8.194;2023-03-07T15:27:00;2.75;;;1.00;;
18443;SDS011;9350;53.176;8.194;2023-03-07T15:29:29;8.00;;;1.13;;
18443;SDS011;9350;53.176;8.194;2023-03-07T15:31:57;4.13;;;0.80;;
18443;SDS011;9350;53.176;8.194;2023-03-07T15:34:27;3.55;;;1.20;;
18443;SDS011;9350;53.176;8.194;2023-03-07T15:37:11;7.57;;;1.25;;
18443;SDS011;9350;53.176;8.194;2023-03-07T15:39:52;2.17;;;0.73;;
18443;SDS011;9350;53.176;8.194;2023-03-07T15:42:20;3.50;;;1.13;;
18443;SDS011;9350;53.176;8.194;2023-03-07T15:44:51;6.05;;;1.10;;
18443;SDS011;9350;53.176;8.194;2023-03-07T15:47:19;2.13;;;0.80;;
18443;SDS011;9350;53.176;8.194;2023-03-07T15:49:49;1.33;;;0.88;;
18443;SDS011;9350;53.176;8.194;2023-03-07T15:52:23;0.73;;;0.70;;
18443;SDS011;9350;53.176;8.194;2023-03-07T15:54:53;3.22;;;0.60;;